Time;durP1;ratioP1;P1;durP2;ratioP2;P2;SDS_P1;SDS_P2;PMS_P1;PMS_P2;Temp;Humidity;BMP_temperature;BMP_pressure;BME280_temperature;BME280_humidity;BME280_pressure;Samples;Min_cycle;Max_cycle;Signal;HPM_P1;HPM_P2
2022/01/04 00:00:12;;;;;;;4.87;3.30;;;;;;;6.29;76.48;98731.44;1739624;80;21052;-69
2022/01/04 00:02:41;;;;;;;5.45;3.42;;;;;;;6.29;76.66;98735.37;1744198;80;20996;-69
2022/01/04 00:05:09;;;;;;;4.25;3.50;;;;;;;6.28;76.86;98743.37;1737914;80;21494;-68
2022/01/04 00:07:36;;;;;;;4.58;3.40;;;;;;;6.25;77.06;98744.45;1759986;80;21024;-69
2022/01/04 00:10:04;;;;;;;4.12;3.22;;;;;;;6.24;77.21;98740.66;1750772;80;21842;-69
2022/01/04 00:15:18;;;;;;;4.40;3.55;;;;;;;6.20;77.35;98748.45;1734472;82;21471;-68
2022/01/04 00:17:45;;;;;;;5.28;3.65;;;;;;;6.20;77.42;98755.00;1748005;80;20966;-69
2022/01/04 00:20:11;;;;;;;5.08;3.70;;;;;;;6.17;77.47;98760.01;1746426;80;20949;-69
2022/01/04 00:22:39;;;;;;;5.30;3.50;;;;;;;6.13;77.64;98757.32;1734740;82;21788;-69
2022/01/04 00:25:08;;;;;;;5.62;3.80;;;;;;;6.13;77.67;98760.42;1769132;80;21467;-69
2022/01/04 00:27:36;;;;;;;4.62;3.47;;;;;;;6.10;77.80;98758.91;1737639;80;20985;-68
2022/01/04 00:30:05;;;;;;;5.72;3.85;;;;;;;6.10;77.88;98762.84;1775579;80;20941;-68
2022/01/04 00:32:32;;;;;;;7.45;3.77;;;;;;;6.09;77.87;98765.11;1753344;80;20948;-69
2022/01/04 00:34:59;;;;;;;4.53;3.47;;;;;;;6.09;78.00;98765.59;1762448;80;21823;-69
2022/01/04 00:37:26;;;;;;;4.65;3.65;;;;;;;6.09;78.02;98770.36;1747823;82;21768;-68
2022/01/04 00:39:52;;;;;;;4.33;3.55;;;;;;;6.10;78.05;98769.88;1745082;80;20981;-69
2022/01/04 00:42:20;;;;;;;4.55;3.70;;;;;;;6.10;78.08;98768.08;1745967;82;20982;-68
2022/01/04 00:44:47;;;;;;;4.50;3.70;;;;;;;6.10;78.07;98768.08;1744504;82;21055;-69
2022/01/04 00:47:13;;;;;;;5.50;3.37;;;;;;;6.10;78.10;98766.77;1746146;82;22759;-69
2022/01/04 00:49:40;;;;;;;5.30;3.85;;;;;;;6.12;78.06;98774.02;1758599;80;21269;-69
2022/01/04 00:52:07;;;;;;;4.00;3.42;;;;;;;6.12;78.00;98778.43;1771373;80;21024;-69
2022/01/04 00:54:35;;;;;;;3.77;3.37;;;;;;;6.12;78.02;98771.39;1761410;80;21150;-68
2022/01/04 00:57:01;;;;;;;5.00;3.20;;;;;;;6.12;78.03;98772.70;1732892;81;21427;-68
2022/01/04 00:59:28;;;;;;;5.30;3.27;;;;;;;6.14;77.99;98771.25;1759364;81;22647;-68
2022/01/04 01:01:54;;;;;;;6.55;3.40;;;;;;;6.12;78.00;98770.08;1760321;80;20992;-68
2022/01/04 01:04:22;;;;;;;5.90;3.17;;;;;;;6.10;78.01;98769.39;1759926;80;20964;-68
2022/01/04 01:06:50;;;;;;;5.08;3.50;;;;;;;6.11;78.03;98779.39;1757887;80;21064;-69
2022/01/04 01:09:18;;;;;;;4.87;3.30;;;;;;;6.10;78.07;98772.02;1758065;80;21032;-69
2022/01/04 01:11:47;;;;;;;4.72;3.52;;;;;;;6.10;78.06;98777.73;1786734;80;22248;-70
2022/01/04 01:14:14;;;;;;;4.03;3.20;;;;;;;6.10;78.03;98765.94;1790821;80;20942;-69
2022/01/04 01:16:41;;;;;;;3.40;2.90;;;;;;;6.10;78.04;98773.33;1760886;80;20900;-69
2022/01/04 01:19:07;;;;;;;4.10;2.80;;;;;;;6.10;78.01;98768.56;1753892;81;21032;-68
2022/01/04 01:21:36;;;;;;;3.62;3.00;;;;;;;6.11;78.00;98767.59;1782883;80;21455;-69
2022/01/04 01:24:04;;;;;;;5.78;3.12;;;;;;;6.10;77.99;98772.50;1791100;80;21740;-68
2022/01/04 01:26:31;;;;;;;4.83;2.90;;;;;;;6.10;77.98;98778.56;1780355;80;20841;-70
2022/01/04 01:28:59;;;;;;;4.12;3.12;;;;;;;6.11;77.95;98775.46;1791079;80;21036;-70
2022/01/04 01:31:27;;;;;;;5.92;3.20;;;;;;;6.09;77.92;98786.09;1771502;80;21507;-70
2022/01/04 01:33:55;;;;;;;3.72;2.80;;;;;;;6.08;77.89;98779.19;1777550;80;21024;-69
2022/01/04 01:36:23;;;;;;;4.92;2.90;;;;;;;6.10;77.84;98781.19;1774705;80;21516;-68
2022/01/04 01:38:49;;;;;;;4.65;2.70;;;;;;;6.09;77.81;98783.47;1756300;80;21044;-68
2022/01/04 01:41:16;;;;;;;4.60;2.80;;;;;;;6.09;77.77;98784.77;1779479;80;21092;-69
2022/01/04 01:43:42;;;;;;;4.33;2.62;;;;;;;6.09;77.74;98785.25;1760195;80;21024;-68
2022/01/04 01:46:10;;;;;;;3.42;2.60;;;;;;;6.09;77.66;98787.88;1734257;81;21035;-68
2022/01/04 01:48:36;;;;;;;3.50;2.30;;;;;;;6.07;77.63;98787.16;1765305;79;22184;-69
2022/01/04 01:51:03;;;;;;;4.12;2.65;;;;;;;6.07;77.63;98789.30;1756820;80;20938;-69
2022/01/04 01:53:29;;;;;;;4.00;2.70;;;;;;;6.08;77.51;98788.81;1742463;81;21012;-70
2022/01/04 01:55:57;;;;;;;3.42;2.55;;;;;;;6.08;77.48;98780.50;1714659;82;21020;-69
2022/01/04 01:58:25;;;;;;;4.55;2.20;;;;;;;6.10;77.43;98783.81;1739238;81;20945;-68
2022/01/04 02:00:51;;;;;;;3.33;2.42;;;;;;;6.10;77.34;98785.12;1747326;80;21849;-68
2022/01/04 02:03:18;;;;;;;3.17;2.33;;;;;;;6.11;77.27;98782.84;1734207;82;21608;-67
2022/01/04 02:05:45;;;;;;;3.25;2.40;;;;;;;6.11;77.19;98789.87;1735173;82;20972;-68
2022/01/04 02:08:11;;;;;;;3.58;2.50;;;;;;;;;;1718351;81;20995;-68
2022/01/04 02:10:38;;;;;;;3.72;2.60;;;;;;;6.10;77.06;98795.60;1751547;80;21434;-69
2022/01/04 02:13:06;;;;;;;3.17;2.30;;;;;;;6.09;77.02;98796.56;1778616;80;22499;-70
2022/01/04 02:15:33;;;;;;;3.75;2.50;;;;;;;6.08;77.01;98804.09;1776511;80;21452;-70
2022/01/04 02:18:00;;;;;;;3.35;2.35;;;;;;;6.07;77.02;98799.78;1737803;82;21541;-68
2022/01/04 02:20:28;;;;;;;3.35;2.40;;;;;;;6.06;77.03;98800.74;1753503;80;21013;-71
2022/01/04 02:22:57;;;;;;;3.67;2.60;;;;;;;6.06;77.02;98791.56;1778945;80;21530;-72
2022/01/04 02:25:23;;;;;;;4.80;2.50;;;;;;;6.07;76.96;98798.95;1756819;80;21781;-68
2022/01/04 02:27:50;;;;;;;3.45;2.65;;;;;;;6.05;77.05;98803.50;1770372;80;21491;-69
2022/01/04 02:30:18;;;;;;;3.10;2.55;;;;;;;6.03;77.08;98809.70;1729714;80;21142;-70
2022/01/04 02:32:46;;;;;;;4.17;2.70;;;;;;;6.04;77.05;98811.84;1719502;80;20950;-69
2022/01/04 02:35:15;;;;;;;4.28;2.60;;;;;;;6.04;77.02;98810.53;1762109;80;21443;-69
2022/01/04 02:37:41;;;;;;;4.10;2.50;;;;;;;6.01;77.09;98812.94;1755086;80;21805;-69
2022/01/04 02:40:10;;;;;;;3.80;2.35;;;;;;;6.01;77.16;98816.88;1766509;80;20901;-70
2022/01/04 02:42:38;;;;;;;2.90;2.33;;;;;;;6.01;77.29;98816.05;1729612;81;20988;-68
2022/01/04 02:45:05;;;;;;;4.10;2.20;;;;;;;6.00;77.51;98827.02;1741245;80;21462;-69
2022/01/04 02:47:32;;;;;;;3.65;2.42;;;;;;;6.01;77.52;98822.12;1744340;80;21000;-70
2022/01/04 02:50:00;;;;;;;4.17;2.60;;;;;;;5.99;77.74;98828.46;1751361;80;21892;-70
2022/01/04 02:52:27;;;;;;;4.05;2.83;;;;;;;5.96;77.91;98833.45;1755416;80;21060;-69
2022/01/04 02:54:54;;;;;;;3.70;2.98;;;;;;;5.95;77.95;98829.66;1784624;80;20944;-69
2022/01/04 02:57:20;;;;;;;3.72;2.87;;;;;;;5.92;78.05;98836.00;1775243;80;20981;-69
2022/01/04 02:59:47;;;;;;;3.25;2.80;;;;;;;5.91;78.27;98831.72;1752995;80;21185;-69
2022/01/04 03:02:14;;;;;;;4.20;2.85;;;;;;;5.89;78.48;98830.17;1756846;80;22299;-71
2022/01/04 03:04:41;;;;;;;5.28;3.10;;;;;;;5.87;78.59;98837.30;1750476;80;21051;-68
2022/01/04 03:07:07;;;;;;;3.52;2.58;;;;;;;5.88;78.66;98837.66;1772984;80;20993;-68
2022/01/04 03:09:35;;;;;;;4.37;2.98;;;;;;;5.87;78.68;98845.16;1751961;80;21265;-69
2022/01/04 03:12:01;;;;;;;4.72;3.15;;;;;;;5.87;78.71;98851.23;1741800;82;21502;-68
2022/01/04 03:14:28;;;;;;;4.20;3.52;;;;;;;5.85;78.96;98851.02;1743623;80;21779;-70
2022/01/04 03:16:54;;;;;;;4.72;3.72;;;;;;;5.83;79.14;98851.64;1733136;81;20945;-68
2022/01/04 03:19:21;;;;;;;4.30;3.30;;;;;;;5.80;79.43;98855.84;1751620;81;20967;-69
2022/01/04 03:21:48;;;;;;;5.70;3.62;;;;;;;5.81;79.36;98860.11;1746681;80;21471;-70
2022/01/04 03:24:15;;;;;;;5.25;3.60;;;;;;;5.81;79.37;98858.80;1721588;81;20960;-69
2022/01/04 03:26:42;;;;;;;4.03;3.35;;;;;;;5.79;79.40;98860.69;1778888;80;21788;-68
2022/01/04 03:29:11;;;;;;;3.58;2.92;;;;;;;5.79;79.39;98859.38;1744822;81;21004;-70
2022/01/04 03:31:38;;;;;;;4.25;3.20;;;;;;;5.80;79.35;98863.69;1756467;80;21063;-68
2022/01/04 03:34:04;;;;;;;5.72;3.20;;;;;;;5.79;79.37;98869.86;1730258;81;20976;-70
2022/01/04 03:36:31;;;;;;;4.20;2.75;;;;;;;5.80;79.37;98874.17;1769260;80;20956;-70
2022/01/04 03:38:58;;;;;;;4.97;3.30;;;;;;;5.80;79.36;98875.48;1735456;80;22313;-68
2022/01/04 03:41:26;;;;;;;3.80;2.83;;;;;;;5.81;79.36;98879.77;1780880;80;20941;-68
2022/01/04 03:43:53;;;;;;;3.80;2.90;;;;;;;5.80;79.32;98882.86;1753779;80;20943;-68
2022/01/04 03:46:20;;;;;;;4.50;3.05;;;;;;;5.80;79.31;98875.48;1789413;80;20980;-68
2022/01/04 03:48:46;;;;;;;3.22;2.80;;;;;;;5.82;79.30;98885.35;1735410;80;21042;-68
2022/01/04 03:51:13;;;;;;;2.85;2.50;;;;;;;5.82;79.25;98881.42;1730567;81;22171;-68
2022/01/04 03:53:39;;;;;;;3.00;2.52;;;;;;;5.82;79.17;98884.04;1756570;81;21011;-68
2022/01/04 03:56:07;;;;;;;3.25;2.83;;;;;;;5.80;79.10;98884.66;1729160;81;21551;-68
2022/01/04 03:58:35;;;;;;;3.27;2.50;;;;;;;5.79;79.03;98891.69;1738817;81;20945;-69
2022/01/04 04:01:01;;;;;;;3.45;2.52;;;;;;;5.77;79.04;98894.06;1767474;81;20954;-68
2022/01/04 04:03:29;;;;;;;3.52;2.77;;;;;;;5.75;79.08;98892.88;1731464;81;22172;-69
2022/01/04 04:05:55;;;;;;;3.85;2.77;;;;;;;5.73;78.96;98891.70;1740111;81;21004;-69
2022/01/04 04:08:22;;;;;;;3.40;2.70;;;;;;;5.73;78.97;98886.94;1755167;81;21561;-69
2022/01/04 04:10:49;;;;;;;3.20;2.65;;;;;;;5.71;79.02;98896.72;1785137;80;20976;-69
2022/01/04 04:13:15;;;;;;;3.20;2.70;;;;;;;5.68;79.08;98889.10;1778971;80;20940;-68
2022/01/04 04:15:43;;;;;;;2.98;2.40;;;;;;;5.69;79.08;98890.31;1780745;80;21833;-69
2022/01/04 04:18:11;;;;;;;2.70;2.27;;;;;;;5.71;79.11;98900.66;1769107;79;21506;-70
2022/01/04 04:20:38;;;;;;;3.37;2.40;;;;;;;5.73;79.04;98900.05;1761783;80;21009;-70
2022/01/04 04:23:06;;;;;;;2.50;2.27;;;;;;;5.73;79.01;98900.05;1772385;80;21028;-68
2022/01/04 04:25:33;;;;;;;2.45;2.22;;;;;;;5.75;78.99;98900.73;1779440;80;21421;-69
2022/01/04 04:28:00;;;;;;;3.33;2.50;;;;;;;5.77;78.95;98908.47;1737230;81;21838;-69
2022/01/04 04:30:27;;;;;;;2.95;2.40;;;;;;;5.77;78.86;98902.75;1747250;81;21004;-70
2022/01/04 04:32:54;;;;;;;2.92;2.50;;;;;;;5.78;78.81;98910.13;1743894;81;20941;-69
2022/01/04 04:35:20;;;;;;;2.95;2.40;;;;;;;5.80;78.74;98923.47;1744021;81;20999;-68
2022/01/04 04:37:47;;;;;;;4.47;2.95;;;;;;;5.81;78.71;98915.13;1757205;81;21047;-69
2022/01/04 04:40:15;;;;;;;3.75;2.70;;;;;;;5.82;78.63;98916.79;1721048;82;21760;-69
2022/01/04 04:42:42;;;;;;;3.72;2.65;;;;;;;5.81;78.56;98918.58;1727888;81;20957;-69
2022/01/04 04:45:09;;;;;;;3.95;3.08;;;;;;;5.80;78.49;98922.16;1726381;81;21013;-69
2022/01/04 04:47:36;;;;;;;3.85;3.00;;;;;;;5.81;78.49;98928.23;1741563;81;20962;-69
2022/01/04 04:50:04;;;;;;;4.00;3.17;;;;;;;5.80;78.44;98927.41;1762363;81;20998;-68
2022/01/04 04:52:30;;;;;;;4.65;3.20;;;;;;;5.81;78.39;98925.61;1712423;82;21848;-68
2022/01/04 04:54:58;;;;;;;3.87;3.15;;;;;;;5.81;78.33;98932.16;1720608;82;21056;-70
2022/01/04 04:57:24;;;;;;;3.12;2.60;;;;;;;5.81;78.32;98930.85;1742502;81;21035;-69
2022/01/04 04:59:51;;;;;;;3.55;2.80;;;;;;;5.81;78.24;98935.61;1742503;81;21446;-69
2022/01/04 05:02:17;;;;;;;3.62;2.75;;;;;;;5.82;78.20;98939.89;1739590;81;21135;-70
2022/01/04 05:04:43;;;;;;;3.05;2.37;;;;;;;5.82;78.10;98946.92;1711785;82;21810;-69
2022/01/04 05:07:10;;;;;;;2.62;2.22;;;;;;;5.80;78.07;98947.53;1722516;82;21001;-69
2022/01/04 05:09:37;;;;;;;3.80;2.35;;;;;;;5.81;78.03;98951.33;1739634;81;21463;-69
2022/01/04 05:12:05;;;;;;;4.25;2.92;;;;;;;5.82;78.00;98952.16;1723871;82;20989;-70
2022/01/04 05:14:33;;;;;;;3.80;2.30;;;;;;;5.83;77.96;98957.27;1714796;82;21367;-71
2022/01/04 05:17:00;;;;;;;2.80;2.35;;;;;;;5.84;77.90;98958.10;1752536;81;21840;-68
2022/01/04 05:19:27;;;;;;;2.90;2.40;;;;;;;5.83;77.86;98955.13;1731784;81;21478;-67
2022/01/04 05:21:53;;;;;;;2.27;1.80;;;;;;;5.83;77.81;98957.27;1738018;82;20969;-67
2022/01/04 05:24:19;;;;;;;2.77;1.92;;;;;;;5.81;77.74;98962.30;1764398;81;20988;-67
2022/01/04 05:26:47;;;;;;;2.47;1.70;;;;;;;5.79;77.73;98965.49;1771073;79;21095;-67
2022/01/04 05:29:13;;;;;;;1.90;1.60;;;;;;;5.75;77.69;98960.52;1760592;80;22636;-67
2022/01/04 05:31:40;;;;;;;2.20;1.70;;;;;;;5.74;77.65;98970.64;1762935;80;21008;-67
2022/01/04 05:34:06;;;;;;;1.90;1.70;;;;;;;5.71;77.65;98969.59;1729802;81;21098;-72
2022/01/04 05:36:35;;;;;;;1.65;1.50;;;;;;;5.69;77.62;98976.75;1751314;80;22245;-70
2022/01/04 05:39:01;;;;;;;2.27;1.70;;;;;;;5.66;77.65;98978.29;1762243;80;20984;-69
2022/01/04 05:41:28;;;;;;;1.87;1.72;;;;;;;5.64;77.77;98981.52;1768520;80;21819;-69
2022/01/04 05:43:54;;;;;;;3.02;2.70;;;;;;;5.63;77.74;98983.79;1760853;80;21387;-68
2022/01/04 05:46:21;;;;;;;3.87;2.80;;;;;;;5.62;77.82;98984.75;1768698;81;20964;-69
2022/01/04 05:48:47;;;;;;;3.60;2.30;;;;;;;5.61;77.88;98985.70;1761521;80;21066;-69
2022/01/04 05:51:14;;;;;;;3.15;2.30;;;;;;;5.61;78.06;98987.50;1757631;81;20958;-69
2022/01/04 05:53:40;;;;;;;3.80;2.85;;;;;;;5.62;78.07;98991.30;1741081;81;21811;-70
2022/01/04 05:56:06;;;;;;;2.90;2.40;;;;;;;5.64;78.04;98987.23;1769887;80;21039;-70
2022/01/04 05:58:33;;;;;;;4.65;3.33;;;;;;;5.67;77.98;99000.91;1763155;80;21439;-69
2022/01/04 06:01:00;;;;;;;5.60;4.95;;;;;;;5.70;77.92;99001.99;1739393;81;21457;-74
2022/01/04 06:03:27;;;;;;;4.10;3.67;;;;;;;5.71;77.91;98998.41;1721352;81;21031;-75
2022/01/04 06:05:54;;;;;;;3.15;2.60;;;;;;;5.73;77.87;99005.66;1716902;82;21843;-75
2022/01/04 06:08:22;;;;;;;3.22;2.58;;;;;;;5.72;77.88;99010.55;1690008;80;21011;-75
2022/01/04 06:10:52;;;;;;;2.67;2.12;;;;;;;5.74;77.91;99013.88;1756113;81;21460;-75
2022/01/04 06:16:04;;;;;;;4.08;2.65;;;;;;;5.77;77.89;99025.05;1787088;80;21074;-74
2022/01/04 06:18:31;;;;;;;3.00;2.40;;;;;;;5.75;77.92;99019.46;1784244;80;21772;-74
2022/01/04 06:20:57;;;;;;;3.40;2.90;;;;;;;5.77;77.95;99028.98;1754413;81;21508;-73
2022/01/04 06:23:24;;;;;;;3.10;2.60;;;;;;;5.78;77.96;99025.41;1757527;80;20933;-74
2022/01/04 06:25:53;;;;;;;3.95;2.70;;;;;;;5.77;78.02;99025.05;1773061;80;20956;-74
2022/01/04 06:28:21;;;;;;;3.67;2.85;;;;;;;5.78;78.02;99036.71;1787414;80;21471;-74
2022/01/04 06:30:50;;;;;;;3.85;3.00;;;;;;;5.79;78.02;99041.03;1756192;81;22879;-74
2022/01/04 06:33:21;;;;;;;3.60;3.02;;;;;;;5.80;78.04;99047.09;1763490;81;21041;-74
2022/01/04 06:35:49;;;;;;;4.20;3.20;;;;;;;5.82;78.02;99049.11;1787455;80;21003;-73
2022/01/04 06:38:16;;;;;;;4.65;3.15;;;;;;;5.81;78.06;99051.38;1766414;81;21439;-74
2022/01/04 06:40:42;;;;;;;3.20;2.90;;;;;;;5.82;78.08;99058.28;1754685;80;20984;-74
2022/01/04 06:43:10;;;;;;;3.90;3.00;;;;;;;5.81;78.11;99061.38;1788997;80;21781;-74
2022/01/04 06:45:36;;;;;;;3.80;3.37;;;;;;;5.82;78.23;99060.90;1786933;80;21051;-73
2022/01/04 06:48:04;;;;;;;5.55;3.80;;;;;;;5.81;78.39;99060.55;1789073;80;20976;-74
2022/01/04 06:50:32;;;;;;;5.35;3.60;;;;;;;5.80;78.50;99069.37;1754828;80;21055;-73
2022/01/04 06:52:59;;;;;;;4.53;3.45;;;;;;;5.77;78.65;99069.59;1771768;81;20987;-74
2022/01/04 06:55:25;;;;;;;4.17;3.52;;;;;;;5.77;78.67;99076.14;1747471;80;22194;-74
2022/01/04 06:57:53;;;;;;;5.30;4.03;;;;;;;5.77;78.74;99082.21;1728097;81;20953;-74
2022/01/04 07:00:19;;;;;;;6.08;4.12;;;;;;;5.76;78.95;99076.63;1688766;83;21012;-74
2022/01/04 07:02:46;;;;;;;6.35;4.05;;;;;;;5.76;79.00;99083.17;1729901;81;20952;-74
2022/01/04 07:05:12;;;;;;;5.08;3.77;;;;;;;5.74;79.28;99078.53;1761479;79;20994;-74
2022/01/04 07:07:39;;;;;;;4.78;4.03;;;;;;;5.71;79.39;99075.70;1773181;80;22649;-74
2022/01/04 07:10:07;;;;;;;5.83;4.70;;;;;;;5.72;79.48;99074.73;1771636;81;20956;-74
2022/01/04 07:12:35;;;;;;;5.90;4.53;;;;;;;5.71;79.60;99073.08;1748453;81;21450;-74
2022/01/04 07:15:04;;;;;;;6.25;4.60;;;;;;;5.71;79.73;99080.94;1733736;81;20964;-74
2022/01/04 07:17:30;;;;;;;7.15;5.53;;;;;;;5.71;79.82;99082.24;1747583;81;20988;-74
2022/01/04 07:19:57;;;;;;;6.90;5.70;;;;;;;5.72;79.83;99080.45;1764009;81;21827;-73
2022/01/04 07:22:25;;;;;;;7.58;5.20;;;;;;;5.72;79.92;99078.66;1763123;81;20936;-74
2022/01/04 07:24:53;;;;;;;9.28;7.03;;;;;;;5.73;80.05;99086.87;1758993;81;21509;-74
2022/01/04 07:27:21;;;;;;;7.05;5.45;;;;;;;5.74;80.08;99082.47;1729295;81;21522;-74
2022/01/04 07:29:48;;;;;;;9.00;5.30;;;;;;;5.75;80.08;99085.44;1744054;81;20992;-74
2022/01/04 07:32:14;;;;;;;5.75;4.55;;;;;;;5.74;80.12;99083.78;1734697;81;22212;-74
2022/01/04 07:34:42;;;;;;;5.35;4.42;;;;;;;5.73;80.13;99092.59;1746879;80;21513;-75
2022/01/04 07:37:09;;;;;;;6.12;4.40;;;;;;;5.73;80.11;99098.66;1763494;81;21047;-76
2022/01/04 07:39:35;;;;;;;5.45;4.50;;;;;;;5.73;80.08;99093.42;1740916;81;21011;-74
2022/01/04 07:42:02;;;;;;;6.25;4.90;;;;;;;5.75;80.09;99091.51;1766385;80;20952;-74
2022/01/04 07:44:31;;;;;;;6.17;4.70;;;;;;;5.75;80.10;99099.37;1703297;82;21901;-74
2022/01/04 07:46:57;;;;;;;5.85;4.37;;;;;;;5.78;80.09;99097.45;1736353;82;21051;-74
2022/01/04 07:49:25;;;;;;;7.28;5.17;;;;;;;5.81;80.08;99102.47;1719503;82;20976;-74
2022/01/04 07:51:52;;;;;;;8.08;5.80;;;;;;;5.84;80.02;99099.59;1722380;83;20968;-74
2022/01/04 07:54:19;;;;;;;6.17;5.17;;;;;;;5.85;80.01;99106.50;1739584;80;20968;-74
2022/01/04 07:56:45;;;;;;;6.65;4.83;;;;;;;5.86;79.99;99109.47;1750725;80;21856;-74
2022/01/04 07:59:12;;;;;;;5.30;4.60;;;;;;;5.88;79.94;99111.48;1765951;79;20940;-74
2022/01/04 08:01:39;;;;;;;4.78;4.28;;;;;;;5.88;79.90;99117.55;1740402;81;21007;-74
2022/01/04 08:04:05;;;;;;;6.28;4.33;;;;;;;5.90;79.82;99120.94;1742495;81;21056;-74
2022/01/04 08:06:32;;;;;;;5.65;4.53;;;;;;;5.93;79.76;99125.92;1734852;80;20953;-74
2022/01/04 08:08:59;;;;;;;6.67;4.28;;;;;;;5.95;79.67;99125.32;1779848;80;21843;-74
2022/01/04 08:11:26;;;;;;;5.95;4.22;;;;;;;5.94;79.52;99125.45;1743484;80;20960;-74
2022/01/04 08:13:54;;;;;;;6.53;5.22;;;;;;;5.96;79.45;99133.53;1753643;81;20941;-76
2022/01/04 08:16:20;;;;;;;7.12;4.87;;;;;;;5.97;79.32;99131.74;1750117;80;21390;-75
2022/01/04 08:18:49;;;;;;;6.45;4.58;;;;;;;5.99;79.27;99132.48;1758728;80;21037;-74
2022/01/04 08:21:16;;;;;;;7.45;5.58;;;;;;;6.02;79.17;99134.36;1780096;80;21816;-72
2022/01/04 08:23:42;;;;;;;7.28;5.42;;;;;;;6.07;79.09;99132.67;1751343;79;21466;-75
2022/01/04 08:26:09;;;;;;;6.28;4.70;;;;;;;6.09;78.95;99134.71;1745429;81;20995;-73
2022/01/04 08:28:35;;;;;;;5.40;4.20;;;;;;;6.13;78.77;99137.43;1752914;80;20993;-74
2022/01/04 08:31:02;;;;;;;5.42;3.80;;;;;;;6.16;78.60;99135.03;1760583;80;21360;-73
2022/01/04 08:33:29;;;;;;;5.40;4.30;;;;;;;6.19;78.41;99133.49;1755546;80;21770;-74
2022/01/04 08:35:55;;;;;;;7.35;5.03;;;;;;;6.20;78.17;99140.40;1755078;81;21403;-74
2022/01/04 08:38:21;;;;;;;6.58;4.80;;;;;;;6.23;78.10;99134.89;1758173;80;21429;-74
2022/01/04 08:40:48;;;;;;;4.80;3.83;;;;;;;6.24;77.92;99133.94;1764217;80;21086;-74
2022/01/04 08:43:16;;;;;;;6.90;4.72;;;;;;;6.23;77.66;99143.59;1746978;80;20943;-73
2022/01/04 08:45:43;;;;;;;6.50;4.30;;;;;;;6.25;77.48;99144.30;1745901;80;22505;-75
2022/01/04 08:48:10;;;;;;;5.50;4.40;;;;;;;6.29;77.37;99147.52;1761608;80;20971;-73
2022/01/04 08:50:37;;;;;;;6.67;4.67;;;;;;;6.30;77.13;99147.39;1768954;80;21023;-76
2022/01/04 08:53:06;;;;;;;5.58;4.50;;;;;;;6.31;77.04;99145.59;1728154;81;21339;-76
2022/01/04 08:55:32;;;;;;;7.72;5.58;;;;;;;6.32;76.92;99149.88;1722190;80;20975;-76
2022/01/04 08:57:58;;;;;;;7.53;5.30;;;;;;;6.34;76.77;99152.38;1730139;80;22190;-76
2022/01/04 09:00:25;;;;;;;5.50;4.05;;;;;;;6.36;76.69;99154.39;1734968;80;21044;-74
2022/01/04 09:02:51;;;;;;;5.28;4.05;;;;;;;6.38;76.58;99154.64;1733204;82;21044;-76
2022/01/04 09:05:18;;;;;;;5.20;3.98;;;;;;;6.38;76.40;99141.52;1743019;81;21035;-75
2022/01/04 09:07:45;;;;;;;4.00;3.40;;;;;;;6.42;76.29;99147.34;1733217;82;21024;-76
2022/01/04 09:10:12;;;;;;;7.90;4.47;;;;;;;6.45;76.14;99153.16;1733191;82;22824;-77
2022/01/04 09:13:01;;;;;;;6.15;3.80;;;;;;;6.48;75.93;99145.06;1746189;81;21046;-77
2022/01/04 09:20:48;;;;;;;6.42;4.15;;;;;;;6.53;75.25;99163.86;1726636;83;21054;-75
2022/01/04 09:23:20;;;;;;;5.22;3.90;;;;;;;6.54;75.07;99160.76;1726614;83;21833;-75
2022/01/04 09:25:48;;;;;;;5.50;4.22;;;;;;;6.55;74.86;99161.11;1737560;82;21024;-76
2022/01/04 09:28:15;;;;;;;5.67;4.10;;;;;;;6.58;74.76;99159.08;1758610;80;20983;-76
2022/01/04 09:30:41;;;;;;;4.28;3.20;;;;;;;6.61;74.65;99155.37;1727593;82;21479;-77
2022/01/04 09:33:08;;;;;;;5.25;3.25;;;;;;;6.64;74.43;99153.80;1718462;83;21494;-77
2022/01/04 09:35:37;;;;;;;4.53;3.25;;;;;;;6.69;74.22;99156.05;1691200;82;22275;-76
2022/01/04 09:38:05;;;;;;;4.60;2.90;;;;;;;6.72;73.88;99150.06;1734809;82;20947;-77
2022/01/04 09:40:35;;;;;;;4.12;2.90;;;;;;;6.76;73.67;99159.84;1745980;81;21467;-79
2022/01/04 09:43:04;;;;;;;4.70;3.20;;;;;;;6.82;73.49;99156.69;1705670;84;21188;-80
2022/01/04 09:45:32;;;;;;;3.85;2.72;;;;;;;6.87;73.24;99159.30;1712172;82;20992;-78
2022/01/04 09:48:01;;;;;;;3.95;2.77;;;;;;;6.95;73.07;99160.42;1726284;81;21796;-77
2022/01/04 09:50:28;;;;;;;3.92;2.95;;;;;;;7.01;72.76;99150.25;1749643;81;20984;-78
2022/01/04 09:52:55;;;;;;;4.67;3.20;;;;;;;7.10;72.44;99147.34;1763671;81;20964;-77
2022/01/04 09:55:22;;;;;;;5.05;3.08;;;;;;;7.23;72.37;99148.42;1732029;82;20955;-78
2022/01/04 09:57:49;;;;;;;4.12;2.75;;;;;;;7.40;72.50;99143.89;1770575;80;21030;-77
2022/01/04 10:00:17;;;;;;;5.47;3.33;;;;;;;7.57;71.70;99148.53;1763936;80;21829;-74
2022/01/04 10:02:50;;;;;;;3.92;2.85;;;;;;;7.70;71.14;99150.43;1767245;80;20933;-73
2022/01/04 10:05:21;;;;;;;4.58;3.10;;;;;;;7.86;70.53;99153.88;1761790;80;20956;-73
2022/01/04 10:07:51;;;;;;;4.00;2.80;;;;;;;8.03;70.18;99145.34;1764730;81;21000;-73
2022/01/04 10:10:18;;;;;;;5.10;2.77;;;;;;;8.24;69.91;99151.81;1756320;80;21049;-73
2022/01/04 10:12:55;;;;;;;4.47;2.72;;;;;;;8.35;68.93;99150.05;1760907;80;20928;-72
2022/01/04 10:15:47;;;;;;;5.25;2.58;;;;;;;8.40;68.36;99157.06;1764396;81;21003;-77
2022/01/04 10:18:21;;;;;;;4.60;2.67;;;;;;;8.49;67.55;99150.48;1782262;79;21030;-75
2022/01/04 10:21:02;;;;;;;3.67;2.55;;;;;;;8.59;67.40;99143.91;1752611;81;21035;-75
2022/01/04 10:23:30;;;;;;;;;;;;;;;8.68;67.12;99147.47;1741488;81;21131;-75
2022/01/04 10:26:06;;;;;;;4.37;2.75;;;;;;;8.72;65.95;99153.66;1755270;80;21831;-76
2022/01/04 10:28:37;;;;;;;5.42;2.80;;;;;;;8.76;65.43;99152.39;1754759;80;20973;-74
2022/01/04 10:31:13;;;;;;;5.17;2.52;;;;;;;8.84;64.45;99152.52;1750441;81;21009;-72
2022/01/04 10:33:40;;;;;;;6.03;3.10;;;;;;;8.88;64.71;99157.05;1755995;80;21518;-74
2022/01/04 10:36:11;;;;;;;6.97;3.02;;;;;;;8.96;64.32;99157.63;1746846;80;21602;-71
2022/01/04 10:38:43;;;;;;;4.65;2.77;;;;;;;8.94;63.93;99161.73;1710035;81;22655;-73
2022/01/04 10:41:13;;;;;;;3.83;2.42;;;;;;;8.81;63.64;99162.52;1747440;80;21507;-74
2022/01/04 10:43:46;;;;;;;4.75;2.95;;;;;;;8.68;63.40;99159.32;1752575;80;21393;-72
2022/01/04 10:46:16;;;;;;;4.45;2.58;;;;;;;8.58;63.56;99171.16;1750771;80;21238;-72
2022/01/04 10:48:45;;;;;;;4.62;3.47;;;;;;;8.45;63.75;99168.81;1751872;81;20936;-72
2022/01/04 10:51:17;;;;;;;5.33;3.20;;;;;;;8.36;64.01;99181.96;1748801;81;21872;-74
2022/01/04 10:53:55;;;;;;;5.80;3.10;;;;;;;8.25;63.86;99175.83;1755420;80;21008;-72
2022/01/04 10:56:33;;;;;;;4.35;3.17;;;;;;;8.16;64.09;99175.81;1761861;80;20948;-73
2022/01/04 10:59:06;;;;;;;6.03;2.90;;;;;;;8.06;64.38;99181.05;1743377;80;22138;-75
2022/01/04 11:01:42;;;;;;;5.53;3.08;;;;;;;7.98;64.41;99185.66;1743298;80;21044;-70
2022/01/04 11:04:20;;;;;;;5.40;3.12;;;;;;;7.93;64.62;99175.22;1749480;80;21889;-71
2022/01/04 11:06:48;;;;;;;5.75;3.20;;;;;;;7.87;64.67;99177.88;1722208;83;21085;-71
2022/01/04 11:09:16;;;;;;;5.35;2.98;;;;;;;7.81;64.89;99182.34;1728531;82;21059;-71
2022/01/04 11:11:44;;;;;;;6.12;3.67;;;;;;;7.76;65.00;99183.25;1772995;79;21016;-72
2022/01/04 11:14:12;;;;;;;8.35;3.35;;;;;;;7.71;65.01;99184.94;1735590;81;21014;-73
2022/01/04 11:16:41;;;;;;;7.28;3.77;;;;;;;7.71;64.98;99181.00;1750221;81;21000;-71
2022/01/04 11:19:08;;;;;;;6.97;3.50;;;;;;;7.77;64.88;99186.22;1739133;81;21063;-71
2022/01/04 11:21:38;;;;;;;7.12;3.67;;;;;;;7.86;64.71;99188.05;1732841;82;20946;-72
2022/01/04 11:24:10;;;;;;;7.28;3.52;;;;;;;7.90;64.55;99190.75;1745435;81;21089;-70
2022/01/04 11:26:40;;;;;;;5.23;3.20;;;;;;;7.90;63.74;99194.70;1737241;81;21317;-72
2022/01/04 11:29:07;;;;;;;7.10;3.98;;;;;;;7.85;63.58;99194.77;1733878;81;21841;-70
2022/01/04 11:32:01;;;;;;;5.30;3.45;;;;;;;7.83;63.46;99199.33;1741106;81;21031;-69
2022/01/04 11:34:57;;;;;;;6.17;4.47;;;;;;;7.76;63.26;99195.08;1719962;82;21470;-70
2022/01/04 11:37:25;;;;;;;8.38;4.08;;;;;;;7.73;63.26;99194.03;1752373;81;21019;-70
2022/01/04 11:39:52;;;;;;;5.85;3.70;;;;;;;7.70;63.06;99196.91;1746175;81;21103;-73
2022/01/04 11:42:38;;;;;;;7.10;3.62;;;;;;;7.65;62.76;99192.55;1746035;81;21826;-73
2022/01/04 11:45:07;;;;;;;5.92;3.62;;;;;;;7.64;63.00;99198.28;1766783;81;21538;-71
2022/01/04 11:47:35;;;;;;;6.60;4.15;;;;;;;7.67;63.33;99205.90;1735841;81;21016;-72
2022/01/04 11:50:21;;;;;;;7.40;3.90;;;;;;;7.72;63.48;99205.03;1765051;81;21023;-73
2022/01/04 11:52:53;;;;;;;6.55;3.72;;;;;;;7.89;64.02;99212.75;1751033;80;21038;-71
2022/01/04 11:55:31;;;;;;;5.83;3.90;;;;;;;8.08;62.95;99198.84;1747395;80;22253;-72